sensor_id;sensor_type;location;lat;lon;timestamp;P1;durP1;ratioP1;P2;durP2;ratioP2
74320;SDS011;62738;45.772;4.804;2022-11-20T00:01:12;9.13;;;3.83;;
74320;SDS011;62738;45.772;4.804;2022-11-20T00:03:41;9.10;;;3.88;;
74320;SDS011;62738;45.772;4.804;2022-11-20T00:06:10;9.57;;;3.88;;
74320;SDS011;62738;45.772;4.804;2022-11-20T00:08:38;8.25;;;4.05;;
74320;SDS011;62738;45.772;4.804;2022-11-20T00:11:38;7.60;;;3.83;;
74320;SDS011;62738;45.772;4.804;2022-11-20T00:13:59;8.77;;;3.97;;
74320;SDS011;62738;45.772;4.804;2022-11-20T00:16:29;6.82;;;3.95;;
74320;SDS011;62738;45.772;4.804;2022-11-20T00:18:57;6.25;;;3.75;;
74320;SDS011;62738;45.772;4.804;2022-11-20T00:21:24;6.22;;;3.55;;
74320;SDS011;62738;45.772;4.804;2022-11-20T00:23:53;6.97;;;3.90;;
74320;SDS011;62738;45.772;4.804;2022-11-20T00:26:21;10.02;;;3.13;;
74320;SDS011;62738;45.772;4.804;2022-11-20T00:28:51;5.85;;;3.33;;
74320;SDS011;62738;45.772;4.804;2022-11-20T00:31:21;7.63;;;3.20;;
74320;SDS011;62738;45.772;4.804;2022-11-20T00:33:48;6.70;;;3.67;;
74320;SDS011;62738;45.772;4.804;2022-11-20T00:36:16;7.28;;;3.88;;
74320;SDS011;62738;45.772;4.804;2022-11-20T00:38:44;9.23;;;4.05;;
74320;SDS011;62738;45.772;4.804;2022-11-20T00:41:13;7.72;;;3.65;;
74320;SDS011;62738;45.772;4.804;2022-11-20T00:43:41;6.30;;;3.78;;
74320;SDS011;62738;45.772;4.804;2022-11-20T00:46:13;9.52;;;4.13;;
74320;SDS011;62738;45.772;4.804;2022-11-20T00:48:41;7.75;;;4.28;;
74320;SDS011;62738;45.772;4.804;2022-11-20T00:51:08;8.60;;;4.47;;
74320;SDS011;62738;45.772;4.804;2022-11-20T00:53:37;12.43;;;4.32;;
74320;SDS011;62738;45.772;4.804;2022-11-20T00:56:05;9.38;;;4.13;;
74320;SDS011;62738;45.772;4.804;2022-11-20T00:58:36;7.30;;;4.25;;
74320;SDS011;62738;45.772;4.804;2022-11-20T01:01:06;6.82;;;4.03;;
74320;SDS011;62738;45.772;4.804;2022-11-20T01:03:42;8.32;;;4.20;;
74320;SDS011;62738;45.772;4.804;2022-11-20T01:06:12;7.43;;;4.07;;
74320;SDS011;62738;45.772;4.804;2022-11-20T01:08:40;9.18;;;4.50;;
74320;SDS011;62738;45.772;4.804;2022-11-20T01:11:08;8.30;;;4.40;;
74320;SDS011;62738;45.772;4.804;2022-11-20T01:13:37;6.82;;;4.10;;
74320;SDS011;62738;45.772;4.804;2022-11-20T01:16:05;6.95;;;3.45;;
74320;SDS011;62738;45.772;4.804;2022-11-20T01:18:35;7.95;;;4.22;;
74320;SDS011;62738;45.772;4.804;2022-11-20T01:21:09;8.35;;;4.50;;
74320;SDS011;62738;45.772;4.804;2022-11-20T01:23:39;6.85;;;4.13;;
74320;SDS011;62738;45.772;4.804;2022-11-20T01:26:08;9.50;;;4.78;;
74320;SDS011;62738;45.772;4.804;2022-11-20T01:28:37;8.85;;;4.57;;
74320;SDS011;62738;45.772;4.804;2022-11-20T01:31:38;9.05;;;4.55;;
74320;SDS011;62738;45.772;4.804;2022-11-20T01:34:32;10.45;;;4.57;;
74320;SDS011;62738;45.772;4.804;2022-11-20T01:36:52;7.78;;;4.38;;
74320;SDS011;62738;45.772;4.804;2022-11-20T01:39:23;7.70;;;4.22;;
74320;SDS011;62738;45.772;4.804;2022-11-20T01:41:51;11.38;;;5.22;;
74320;SDS011;62738;45.772;4.804;2022-11-20T01:44:56;8.13;;;4.70;;
74320;SDS011;62738;45.772;4.804;2022-11-20T01:47:26;11.27;;;4.50;;
74320;SDS011;62738;45.772;4.804;2022-11-20T01:49:56;9.20;;;4.38;;
74320;SDS011;62738;45.772;4.804;2022-11-20T01:52:57;6.88;;;4.05;;
74320;SDS011;62738;45.772;4.804;2022-11-20T01:55:32;7.72;;;4.57;;
74320;SDS011;62738;45.772;4.804;2022-11-20T01:58:02;10.85;;;4.82;;
74320;SDS011;62738;45.772;4.804;2022-11-20T02:03:12;7.28;;;4.10;;
74320;SDS011;62738;45.772;4.804;2022-11-20T02:08:28;7.47;;;4.32;;
74320;SDS011;62738;45.772;4.804;2022-11-20T02:10:55;10.25;;;5.35;;
74320;SDS011;62738;45.772;4.804;2022-11-20T02:13:21;7.60;;;4.80;;
74320;SDS011;62738;45.772;4.804;2022-11-20T02:18:43;7.88;;;4.45;;
74320;SDS011;62738;45.772;4.804;2022-11-20T02:21:19;7.95;;;4.30;;
74320;SDS011;62738;45.772;4.804;2022-11-20T02:23:56;8.05;;;5.22;;
74320;SDS011;62738;45.772;4.804;2022-11-20T02:26:23;9.30;;;4.80;;
74320;SDS011;62738;45.772;4.804;2022-11-20T02:28:53;8.52;;;4.68;;
74320;SDS011;62738;45.772;4.804;2022-11-20T02:31:21;10.23;;;5.00;;
74320;SDS011;62738;45.772;4.804;2022-11-20T02:33:47;10.15;;;5.10;;
74320;SDS011;62738;45.772;4.804;2022-11-20T02:36:19;9.63;;;5.07;;
74320;SDS011;62738;45.772;4.804;2022-11-20T02:38:46;8.13;;;4.55;;
74320;SDS011;62738;45.772;4.804;2022-11-20T02:41:13;7.93;;;4.78;;
74320;SDS011;62738;45.772;4.804;2022-11-20T02:43:40;8.18;;;4.22;;
74320;SDS011;62738;45.772;4.804;2022-11-20T02:46:07;7.70;;;4.78;;
74320;SDS011;62738;45.772;4.804;2022-11-20T02:48:34;8.25;;;4.95;;
74320;SDS011;62738;45.772;4.804;2022-11-20T02:51:01;9.98;;;4.45;;
74320;SDS011;62738;45.772;4.804;2022-11-20T02:53:27;9.60;;;5.35;;
74320;SDS011;62738;45.772;4.804;2022-11-20T02:55:54;9.85;;;4.45;;
74320;SDS011;62738;45.772;4.804;2022-11-20T02:58:21;10.65;;;5.00;;
74320;SDS011;62738;45.772;4.804;2022-11-20T03:00:48;8.32;;;4.65;;
74320;SDS011;62738;45.772;4.804;2022-11-20T03:03:14;8.23;;;4.28;;
74320;SDS011;62738;45.772;4.804;2022-11-20T03:05:41;7.13;;;4.32;;
74320;SDS011;62738;45.772;4.804;2022-11-20T03:08:08;8.90;;;4.60;;
74320;SDS011;62738;45.772;4.804;2022-11-20T03:10:34;8.52;;;4.95;;
74320;SDS011;62738;45.772;4.804;2022-11-20T03:13:01;7.72;;;4.75;;
74320;SDS011;62738;45.772;4.804;2022-11-20T03:15:27;9.05;;;4.00;;
74320;SDS011;62738;45.772;4.804;2022-11-20T03:17:54;7.82;;;4.25;;
74320;SDS011;62738;45.772;4.804;2022-11-20T03:20:22;6.82;;;4.18;;
74320;SDS011;62738;45.772;4.804;2022-11-20T03:22:49;8.18;;;4.22;;
74320;SDS011;62738;45.772;4.804;2022-11-20T03:25:16;6.70;;;4.38;;
74320;SDS011;62738;45.772;4.804;2022-11-20T03:27:42;7.95;;;4.43;;
74320;SDS011;62738;45.772;4.804;2022-11-20T03:30:09;10.40;;;4.57;;
74320;SDS011;62738;45.772;4.804;2022-11-20T03:32:36;7.63;;;4.43;;
74320;SDS011;62738;45.772;4.804;2022-11-20T03:35:03;8.15;;;4.57;;
74320;SDS011;62738;45.772;4.804;2022-11-20T03:37:30;7.63;;;4.13;;
74320;SDS011;62738;45.772;4.804;2022-11-20T03:39:56;6.68;;;3.85;;
74320;SDS011;62738;45.772;4.804;2022-11-20T03:42:23;7.95;;;4.18;;
74320;SDS011;62738;45.772;4.804;2022-11-20T03:45:08;6.80;;;4.05;;
74320;SDS011;62738;45.772;4.804;2022-11-20T03:47:35;7.55;;;4.47;;
74320;SDS011;62738;45.772;4.804;2022-11-20T03:50:02;9.98;;;5.57;;
74320;SDS011;62738;45.772;4.804;2022-11-20T03:52:29;8.43;;;5.07;;
74320;SDS011;62738;45.772;4.804;2022-11-20T03:54:56;10.00;;;4.80;;
74320;SDS011;62738;45.772;4.804;2022-11-20T03:57:23;9.63;;;4.93;;
74320;SDS011;62738;45.772;4.804;2022-11-20T03:59:49;7.85;;;5.07;;
74320;SDS011;62738;45.772;4.804;2022-11-20T04:02:16;9.15;;;4.72;;
74320;SDS011;62738;45.772;4.804;2022-11-20T04:04:43;9.25;;;5.07;;
74320;SDS011;62738;45.772;4.804;2022-11-20T04:07:09;9.82;;;4.82;;
74320;SDS011;62738;45.772;4.804;2022-11-20T04:09:36;8.82;;;4.97;;
74320;SDS011;62738;45.772;4.804;2022-11-20T04:12:03;10.85;;;5.35;;
74320;SDS011;62738;45.772;4.804;2022-11-20T04:14:30;8.52;;;5.32;;
74320;SDS011;62738;45.772;4.804;2022-11-20T04:16:56;9.10;;;4.85;;
74320;SDS011;62738;45.772;4.804;2022-11-20T04:19:23;10.77;;;5.30;;
74320;SDS011;62738;45.772;4.804;2022-11-20T04:21:49;7.78;;;4.90;;
74320;SDS011;62738;45.772;4.804;2022-11-20T04:24:16;7.85;;;4.50;;
74320;SDS011;62738;45.772;4.804;2022-11-20T04:26:43;8.93;;;5.15;;
74320;SDS011;62738;45.772;4.804;2022-11-20T04:29:10;8.07;;;4.68;;
74320;SDS011;62738;45.772;4.804;2022-11-20T04:31:38;12.40;;;4.97;;
74320;SDS011;62738;45.772;4.804;2022-11-20T04:34:05;8.20;;;4.55;;
74320;SDS011;62738;45.772;4.804;2022-11-20T04:36:33;9.57;;;4.80;;
74320;SDS011;62738;45.772;4.804;2022-11-20T04:39:02;10.23;;;4.57;;
74320;SDS011;62738;45.772;4.804;2022-11-20T04:41:32;7.18;;;4.65;;
74320;SDS011;62738;45.772;4.804;2022-11-20T04:44:00;8.90;;;4.97;;
74320;SDS011;62738;45.772;4.804;2022-11-20T04:46:30;7.45;;;4.60;;
74320;SDS011;62738;45.772;4.804;2022-11-20T04:49:02;9.57;;;4.63;;
74320;SDS011;62738;45.772;4.804;2022-11-20T04:51:29;8.55;;;4.63;;
74320;SDS011;62738;45.772;4.804;2022-11-20T04:53:56;8.38;;;4.32;;
74320;SDS011;62738;45.772;4.804;2022-11-20T04:56:22;7.97;;;4.90;;
74320;SDS011;62738;45.772;4.804;2022-11-20T04:58:49;10.63;;;5.13;;
74320;SDS011;62738;45.772;4.804;2022-11-20T05:01:20;9.02;;;4.40;;
74320;SDS011;62738;45.772;4.804;2022-11-20T05:03:49;9.40;;;4.45;;
74320;SDS011;62738;45.772;4.804;2022-11-20T05:06:16;9.73;;;4.65;;
74320;SDS011;62738;45.772;4.804;2022-11-20T05:08:46;8.88;;;4.82;;
74320;SDS011;62738;45.772;4.804;2022-11-20T05:11:13;9.32;;;4.35;;
74320;SDS011;62738;45.772;4.804;2022-11-20T05:13:41;6.20;;;4.18;;
74320;SDS011;62738;45.772;4.804;2022-11-20T05:16:19;9.85;;;4.78;;
74320;SDS011;62738;45.772;4.804;2022-11-20T05:18:47;7.28;;;4.20;;
74320;SDS011;62738;45.772;4.804;2022-11-20T05:21:16;8.85;;;4.38;;
74320;SDS011;62738;45.772;4.804;2022-11-20T05:23:43;8.02;;;4.53;;
74320;SDS011;62738;45.772;4.804;2022-11-20T05:26:15;7.53;;;4.38;;
74320;SDS011;62738;45.772;4.804;2022-11-20T05:28:43;7.78;;;4.10;;
74320;SDS011;62738;45.772;4.804;2022-11-20T05:31:14;6.95;;;3.85;;
74320;SDS011;62738;45.772;4.804;2022-11-20T05:33:50;6.38;;;3.90;;
74320;SDS011;62738;45.772;4.804;2022-11-20T05:36:17;6.75;;;4.25;;
74320;SDS011;62738;45.772;4.804;2022-11-20T05:38:44;8.32;;;4.38;;
74320;SDS011;62738;45.772;4.804;2022-11-20T05:41:16;6.25;;;3.90;;
74320;SDS011;62738;45.772;4.804;2022-11-20T05:43:45;6.30;;;3.75;;
74320;SDS011;62738;45.772;4.804;2022-11-20T05:46:13;8.05;;;4.57;;
74320;SDS011;62738;45.772;4.804;2022-11-20T05:48:42;6.35;;;3.60;;
74320;SDS011;62738;45.772;4.804;2022-11-20T05:51:11;5.75;;;3.85;;
74320;SDS011;62738;45.772;4.804;2022-11-20T05:53:42;7.70;;;3.95;;
74320;SDS011;62738;45.772;4.804;2022-11-20T05:56:15;7.80;;;4.00;;
74320;SDS011;62738;45.772;4.804;2022-11-20T05:58:43;6.43;;;3.65;;
74320;SDS011;62738;45.772;4.804;2022-11-20T06:01:18;7.05;;;3.90;;
74320;SDS011;62738;45.772;4.804;2022-11-20T06:03:50;7.82;;;3.83;;
74320;SDS011;62738;45.772;4.804;2022-11-20T06:06:17;6.43;;;3.80;;
74320;SDS011;62738;45.772;4.804;2022-11-20T06:08:45;7.57;;;3.65;;
74320;SDS011;62738;45.772;4.804;2022-11-20T06:11:12;6.20;;;3.80;;
74320;SDS011;62738;45.772;4.804;2022-11-20T06:13:40;7.88;;;3.53;;
74320;SDS011;62738;45.772;4.804;2022-11-20T06:16:07;6.47;;;3.90;;
74320;SDS011;62738;45.772;4.804;2022-11-20T06:18:35;7.45;;;3.78;;
74320;SDS011;62738;45.772;4.804;2022-11-20T06:21:06;8.75;;;3.85;;
74320;SDS011;62738;45.772;4.804;2022-11-20T06:23:37;6.95;;;4.03;;
74320;SDS011;62738;45.772;4.804;2022-11-20T06:26:04;8.02;;;4.18;;
74320;SDS011;62738;45.772;4.804;2022-11-20T06:28:32;6.45;;;3.60;;
74320;SDS011;62738;45.772;4.804;2022-11-20T06:30:59;5.97;;;4.05;;
74320;SDS011;62738;45.772;4.804;2022-11-20T06:33:26;7.07;;;4.05;;
74320;SDS011;62738;45.772;4.804;2022-11-20T06:35:56;6.57;;;4.07;;
74320;SDS011;62738;45.772;4.804;2022-11-20T06:38:28;6.00;;;3.50;;
74320;SDS011;62738;45.772;4.804;2022-11-20T06:40:55;7.05;;;4.03;;
74320;SDS011;62738;45.772;4.804;2022-11-20T06:43:22;5.65;;;3.60;;
74320;SDS011;62738;45.772;4.804;2022-11-20T06:45:53;7.28;;;3.70;;
74320;SDS011;62738;45.772;4.804;2022-11-20T06:48:21;6.10;;;3.67;;
74320;SDS011;62738;45.772;4.804;2022-11-20T06:50:48;6.00;;;3.42;;
74320;SDS011;62738;45.772;4.804;2022-11-20T06:53:15;6.97;;;2.90;;
74320;SDS011;62738;45.772;4.804;2022-11-20T06:55:43;6.07;;;3.70;;
74320;SDS011;62738;45.772;4.804;2022-11-20T06:58:11;6.65;;;3.60;;
74320;SDS011;62738;45.772;4.804;2022-11-20T07:00:39;5.20;;;3.42;;
74320;SDS011;62738;45.772;4.804;2022-11-20T07:03:06;8.80;;;3.95;;
74320;SDS011;62738;45.772;4.804;2022-11-20T07:05:35;9.02;;;3.55;;
74320;SDS011;62738;45.772;4.804;2022-11-20T07:08:02;8.90;;;3.65;;
74320;SDS011;62738;45.772;4.804;2022-11-20T07:10:30;6.60;;;3.00;;
74320;SDS011;62738;45.772;4.804;2022-11-20T07:12:57;6.75;;;3.63;;
74320;SDS011;62738;45.772;4.804;2022-11-20T07:15:24;7.25;;;3.83;;
74320;SDS011;62738;45.772;4.804;2022-11-20T07:17:51;6.72;;;4.00;;
74320;SDS011;62738;45.772;4.804;2022-11-20T07:20:18;8.95;;;3.90;;
74320;SDS011;62738;45.772;4.804;2022-11-20T07:22:45;8.07;;;3.53;;
74320;SDS011;62738;45.772;4.804;2022-11-20T07:25:11;8.00;;;3.80;;
74320;SDS011;62738;45.772;4.804;2022-11-20T07:27:38;7.00;;;3.83;;
74320;SDS011;62738;45.772;4.804;2022-11-20T07:30:05;10.38;;;5.85;;
74320;SDS011;62738;45.772;4.804;2022-11-20T07:32:32;10.65;;;5.35;;
74320;SDS011;62738;45.772;4.804;2022-11-20T07:34:58;7.57;;;3.95;;
74320;SDS011;62738;45.772;4.804;2022-11-20T07:37:25;7.90;;;4.20;;
74320;SDS011;62738;45.772;4.804;2022-11-20T07:39:52;7.57;;;4.28;;
74320;SDS011;62738;45.772;4.804;2022-11-20T07:42:18;5.13;;;3.60;;
74320;SDS011;62738;45.772;4.804;2022-11-20T07:44:45;7.32;;;4.22;;
74320;SDS011;62738;45.772;4.804;2022-11-20T07:47:12;6.15;;;4.22;;
74320;SDS011;62738;45.772;4.804;2022-11-20T07:49:38;6.03;;;3.28;;
74320;SDS011;62738;45.772;4.804;2022-11-20T07:52:05;7.45;;;3.67;;
74320;SDS011;62738;45.772;4.804;2022-11-20T07:54:31;5.53;;;2.88;;
74320;SDS011;62738;45.772;4.804;2022-11-20T07:56:58;6.18;;;3.38;;
74320;SDS011;62738;45.772;4.804;2022-11-20T07:59:25;7.55;;;3.13;;
74320;SDS011;62738;45.772;4.804;2022-11-20T08:01:51;5.53;;;3.40;;
74320;SDS011;62738;45.772;4.804;2022-11-20T08:04:18;8.95;;;3.22;;
74320;SDS011;62738;45.772;4.804;2022-11-20T08:06:45;6.82;;;3.00;;
74320;SDS011;62738;45.772;4.804;2022-11-20T08:09:12;7.07;;;3.15;;
74320;SDS011;62738;45.772;4.804;2022-11-20T08:11:38;7.45;;;3.25;;
74320;SDS011;62738;45.772;4.804;2022-11-20T08:14:24;4.97;;;2.67;;
74320;SDS011;62738;45.772;4.804;2022-11-20T08:16:50;6.63;;;3.35;;
74320;SDS011;62738;45.772;4.804;2022-11-20T08:19:17;8.85;;;2.72;;
74320;SDS011;62738;45.772;4.804;2022-11-20T08:21:45;7.03;;;2.83;;
74320;SDS011;62738;45.772;4.804;2022-11-20T08:24:12;7.13;;;2.22;;
74320;SDS011;62738;45.772;4.804;2022-11-20T08:26:39;4.35;;;2.60;;
74320;SDS011;62738;45.772;4.804;2022-11-20T08:29:06;5.50;;;1.90;;
74320;SDS011;62738;45.772;4.804;2022-11-20T08:31:33;5.97;;;2.50;;
74320;SDS011;62738;45.772;4.804;2022-11-20T08:34:00;6.22;;;2.53;;
74320;SDS011;62738;45.772;4.804;2022-11-20T08:36:34;5.00;;;1.92;;
74320;SDS011;62738;45.772;4.804;2022-11-20T08:39:01;5.32;;;2.22;;
74320;SDS011;62738;45.772;4.804;2022-11-20T08:41:29;6.72;;;2.70;;
74320;SDS011;62738;45.772;4.804;2022-11-20T08:43:57;6.28;;;2.70;;
74320;SDS011;62738;45.772;4.804;2022-11-20T08:46:25;6.50;;;2.08;;
74320;SDS011;62738;45.772;4.804;2022-11-20T08:48:53;5.70;;;1.98;;
74320;SDS011;62738;45.772;4.804;2022-11-20T08:51:20;9.77;;;2.80;;
74320;SDS011;62738;45.772;4.804;2022-11-20T08:53:46;7.25;;;2.28;;
74320;SDS011;62738;45.772;4.804;2022-11-20T08:56:15;7.22;;;2.10;;
74320;SDS011;62738;45.772;4.804;2022-11-20T08:58:42;7.22;;;2.50;;
74320;SDS011;62738;45.772;4.804;2022-11-20T09:01:28;5.90;;;2.53;;
74320;SDS011;62738;45.772;4.804;2022-11-20T09:03:56;6.43;;;2.60;;
74320;SDS011;62738;45.772;4.804;2022-11-20T09:06:23;6.80;;;2.40;;
74320;SDS011;62738;45.772;4.804;2022-11-20T09:08:53;4.53;;;2.28;;
74320;SDS011;62738;45.772;4.804;2022-11-20T09:11:20;5.65;;;2.20;;
74320;SDS011;62738;45.772;4.804;2022-11-20T09:13:47;7.05;;;2.00;;
74320;SDS011;62738;45.772;4.804;2022-11-20T09:16:13;4.15;;;1.70;;
74320;SDS011;62738;45.772;4.804;2022-11-20T09:18:40;5.10;;;1.88;;
74320;SDS011;62738;45.772;4.804;2022-11-20T09:21:11;6.82;;;1.85;;
74320;SDS011;62738;45.772;4.804;2022-11-20T09:23:39;5.97;;;1.95;;
74320;SDS011;62738;45.772;4.804;2022-11-20T09:26:10;4.47;;;1.90;;
74320;SDS011;62738;45.772;4.804;2022-11-20T09:28:38;5.32;;;1.90;;
74320;SDS011;62738;45.772;4.804;2022-11-20T09:31:09;4.68;;;2.08;;
74320;SDS011;62738;45.772;4.804;2022-11-20T09:33:47;4.30;;;1.65;;
74320;SDS011;62738;45.772;4.804;2022-11-20T09:36:14;5.40;;;1.90;;
74320;SDS011;62738;45.772;4.804;2022-11-20T09:38:42;5.05;;;2.08;;
74320;SDS011;62738;45.772;4.804;2022-11-20T09:47:03;4.55;;;2.05;;
74320;SDS011;62738;45.772;4.804;2022-11-20T09:52:22;6.75;;;1.70;;
74320;SDS011;62738;45.772;4.804;2022-11-20T09:54:54;7.03;;;1.85;;
74320;SDS011;62738;45.772;4.804;2022-11-20T09:57:22;3.85;;;1.67;;
74320;SDS011;62738;45.772;4.804;2022-11-20T09:59:57;4.50;;;1.77;;
74320;SDS011;62738;45.772;4.804;2022-11-20T10:05:22;5.82;;;1.73;;
74320;SDS011;62738;45.772;4.804;2022-11-20T10:10:54;3.90;;;1.40;;
74320;SDS011;62738;45.772;4.804;2022-11-20T10:13:42;5.50;;;1.08;;
74320;SDS011;62738;45.772;4.804;2022-11-20T10:22:02;2.95;;;1.20;;
74320;SDS011;62738;45.772;4.804;2022-11-20T10:30:03;4.47;;;1.50;;
74320;SDS011;62738;45.772;4.804;2022-11-20T10:32:32;6.20;;;1.58;;
74320;SDS011;62738;45.772;4.804;2022-11-20T10:37:41;2.90;;;1.40;;
74320;SDS011;62738;45.772;4.804;2022-11-20T10:43:41;5.15;;;1.58;;
74320;SDS011;62738;45.772;4.804;2022-11-20T10:46:15;7.13;;;1.60;;
74320;SDS011;62738;45.772;4.804;2022-11-20T10:48:44;4.55;;;1.30;;
74320;SDS011;62738;45.772;4.804;2022-11-20T10:54:16;4.57;;;1.30;;
74320;SDS011;62738;45.772;4.804;2022-11-20T10:56:51;4.82;;;1.55;;
74320;SDS011;62738;45.772;4.804;2022-11-20T11:01:55;8.60;;;2.85;;
74320;SDS011;62738;45.772;4.804;2022-11-20T11:04:30;4.28;;;1.52;;
74320;SDS011;62738;45.772;4.804;2022-11-20T11:07:14;3.88;;;1.67;;
74320;SDS011;62738;45.772;4.804;2022-11-20T11:09:46;4.63;;;1.50;;
74320;SDS011;62738;45.772;4.804;2022-11-20T11:14:50;4.75;;;1.40;;
74320;SDS011;62738;45.772;4.804;2022-11-20T11:17:23;4.57;;;1.67;;
74320;SDS011;62738;45.772;4.804;2022-11-20T11:22:53;4.32;;;1.55;;
74320;SDS011;62738;45.772;4.804;2022-11-20T11:25:24;4.88;;;1.50;;
74320;SDS011;62738;45.772;4.804;2022-11-20T11:30:22;4.95;;;1.65;;
74320;SDS011;62738;45.772;4.804;2022-11-20T11:32:50;4.03;;;1.63;;
74320;SDS011;62738;45.772;4.804;2022-11-20T11:35:28;3.60;;;1.60;;
74320;SDS011;62738;45.772;4.804;2022-11-20T11:38:02;5.93;;;1.38;;
74320;SDS011;62738;45.772;4.804;2022-11-20T11:40:34;6.40;;;1.92;;
74320;SDS011;62738;45.772;4.804;2022-11-20T11:43:05;3.70;;;1.27;;
74320;SDS011;62738;45.772;4.804;2022-11-20T11:45:53;2.65;;;1.20;;
74320;SDS011;62738;45.772;4.804;2022-11-20T11:48:21;5.90;;;1.30;;
74320;SDS011;62738;45.772;4.804;2022-11-20T11:50:49;3.50;;;1.40;;
74320;SDS011;62738;45.772;4.804;2022-11-20T11:53:18;3.92;;;1.38;;
74320;SDS011;62738;45.772;4.804;2022-11-20T11:56:04;4.65;;;1.40;;
74320;SDS011;62738;45.772;4.804;2022-11-20T11:58:47;7.68;;;2.08;;
74320;SDS011;62738;45.772;4.804;2022-11-20T12:04:49;4.60;;;1.55;;
74320;SDS011;62738;45.772;4.804;2022-11-20T12:07:13;3.28;;;1.60;;
74320;SDS011;62738;45.772;4.804;2022-11-20T12:10:09;6.13;;;1.92;;
74320;SDS011;62738;45.772;4.804;2022-11-20T12:12:43;6.40;;;1.77;;
74320;SDS011;62738;45.772;4.804;2022-11-20T12:15:15;4.25;;;1.23;;
74320;SDS011;62738;45.772;4.804;2022-11-20T12:17:49;5.28;;;1.80;;
74320;SDS011;62738;45.772;4.804;2022-11-20T12:20:16;3.30;;;1.40;;
74320;SDS011;62738;45.772;4.804;2022-11-20T12:25:48;4.35;;;1.27;;
74320;SDS011;62738;45.772;4.804;2022-11-20T12:39:40;3.03;;;1.30;;
74320;SDS011;62738;45.772;4.804;2022-11-20T12:42:13;4.30;;;1.23;;
74320;SDS011;62738;45.772;4.804;2022-11-20T13:07:43;5.90;;;1.27;;
74320;SDS011;62738;45.772;4.804;2022-11-20T13:10:16;3.47;;;0.93;;
74320;SDS011;62738;45.772;4.804;2022-11-20T13:12:53;2.58;;;0.88;;
74320;SDS011;62738;45.772;4.804;2022-11-20T13:18:27;4.35;;;1.30;;
74320;SDS011;62738;45.772;4.804;2022-11-20T13:23:46;4.93;;;1.30;;
74320;SDS011;62738;45.772;4.804;2022-11-20T13:26:17;4.32;;;1.27;;
74320;SDS011;62738;45.772;4.804;2022-11-20T13:28:47;4.40;;;1.40;;
74320;SDS011;62738;45.772;4.804;2022-11-20T13:31:35;3.17;;;1.25;;
74320;SDS011;62738;45.772;4.804;2022-11-20T13:34:05;4.30;;;1.20;;
74320;SDS011;62738;45.772;4.804;2022-11-20T13:36:33;4.43;;;1.42;;
74320;SDS011;62738;45.772;4.804;2022-11-20T13:39:02;2.70;;;1.10;;
74320;SDS011;62738;45.772;4.804;2022-11-20T13:44:06;3.83;;;1.33;;
74320;SDS011;62738;45.772;4.804;2022-11-20T13:46:43;3.50;;;1.00;;
74320;SDS011;62738;45.772;4.804;2022-11-20T13:57:17;3.35;;;1.25;;
74320;SDS011;62738;45.772;4.804;2022-11-20T13:59:57;4.88;;;1.20;;
74320;SDS011;62738;45.772;4.804;2022-11-20T14:02:27;4.43;;;1.30;;
74320;SDS011;62738;45.772;4.804;2022-11-20T14:04:56;2.53;;;1.10;;
74320;SDS011;62738;45.772;4.804;2022-11-20T14:07:35;2.35;;;1.20;;
74320;SDS011;62738;45.772;4.804;2022-11-20T14:10:18;3.22;;;1.05;;
74320;SDS011;62738;45.772;4.804;2022-11-20T14:12:46;2.70;;;1.20;;
74320;SDS011;62738;45.772;4.804;2022-11-20T14:15:29;3.53;;;1.40;;
74320;SDS011;62738;45.772;4.804;2022-11-20T14:17:58;5.40;;;1.20;;
74320;SDS011;62738;45.772;4.804;2022-11-20T14:20:26;5.10;;;1.25;;
74320;SDS011;62738;45.772;4.804;2022-11-20T14:22:55;3.63;;;1.40;;
74320;SDS011;62738;45.772;4.804;2022-11-20T14:25:23;2.97;;;1.35;;
74320;SDS011;62738;45.772;4.804;2022-11-20T14:27:55;3.17;;;1.27;;
74320;SDS011;62738;45.772;4.804;2022-11-20T14:30:24;5.90;;;1.45;;
74320;SDS011;62738;45.772;4.804;2022-11-20T14:32:54;3.42;;;1.27;;
74320;SDS011;62738;45.772;4.804;2022-11-20T14:35:28;4.03;;;1.40;;
74320;SDS011;62738;45.772;4.804;2022-11-20T14:37:56;3.33;;;1.20;;
74320;SDS011;62738;45.772;4.804;2022-11-20T14:40:30;4.90;;;1.60;;
74320;SDS011;62738;45.772;4.804;2022-11-20T14:43:02;3.40;;;1.20;;
74320;SDS011;62738;45.772;4.804;2022-11-20T14:48:24;5.70;;;1.60;;
74320;SDS011;62738;45.772;4.804;2022-11-20T14:50:55;2.47;;;1.20;;
74320;SDS011;62738;45.772;4.804;2022-11-20T14:53:23;5.57;;;1.45;;
74320;SDS011;62738;45.772;4.804;2022-11-20T14:55:54;2.97;;;1.40;;
74320;SDS011;62738;45.772;4.804;2022-11-20T14:58:32;5.75;;;1.70;;
74320;SDS011;62738;45.772;4.804;2022-11-20T15:01:04;3.22;;;1.33;;
74320;SDS011;62738;45.772;4.804;2022-11-20T15:06:02;4.70;;;1.45;;
74320;SDS011;62738;45.772;4.804;2022-11-20T15:08:29;4.70;;;1.55;;
74320;SDS011;62738;45.772;4.804;2022-11-20T15:10:55;4.18;;;1.50;;
74320;SDS011;62738;45.772;4.804;2022-11-20T15:13:33;4.80;;;1.65;;
74320;SDS011;62738;45.772;4.804;2022-11-20T15:16:03;2.97;;;1.17;;
74320;SDS011;62738;45.772;4.804;2022-11-20T15:18:37;3.83;;;1.40;;
74320;SDS011;62738;45.772;4.804;2022-11-20T15:21:12;4.13;;;1.48;;
74320;SDS011;62738;45.772;4.804;2022-11-20T15:23:47;3.70;;;1.60;;
74320;SDS011;62738;45.772;4.804;2022-11-20T15:26:15;5.50;;;1.55;;
74320;SDS011;62738;45.772;4.804;2022-11-20T15:28:48;5.60;;;1.77;;
74320;SDS011;62738;45.772;4.804;2022-11-20T15:31:18;3.03;;;1.40;;
74320;SDS011;62738;45.772;4.804;2022-11-20T15:33:46;4.13;;;1.48;;
74320;SDS011;62738;45.772;4.804;2022-11-20T15:36:14;4.32;;;1.52;;
74320;SDS011;62738;45.772;4.804;2022-11-20T15:38:40;3.40;;;1.30;;
74320;SDS011;62738;45.772;4.804;2022-11-20T15:41:07;6.72;;;1.38;;
74320;SDS011;62738;45.772;4.804;2022-11-20T15:43:35;3.75;;;1.40;;
74320;SDS011;62738;45.772;4.804;2022-11-20T15:46:03;3.50;;;1.30;;
74320;SDS011;62738;45.772;4.804;2022-11-20T15:48:37;4.10;;;1.77;;
74320;SDS011;62738;45.772;4.804;2022-11-20T15:54:00;4.30;;;1.67;;
74320;SDS011;62738;45.772;4.804;2022-11-20T15:56:28;5.60;;;1.83;;
74320;SDS011;62738;45.772;4.804;2022-11-20T15:58:55;5.40;;;1.60;;
74320;SDS011;62738;45.772;4.804;2022-11-20T16:01:22;5.55;;;1.52;;
74320;SDS011;62738;45.772;4.804;2022-11-20T16:03:49;4.95;;;1.88;;
74320;SDS011;62738;45.772;4.804;2022-11-20T16:06:15;6.75;;;1.60;;
74320;SDS011;62738;45.772;4.804;2022-11-20T16:08:42;4.40;;;1.75;;
74320;SDS011;62738;45.772;4.804;2022-11-20T16:11:13;3.83;;;1.58;;
74320;SDS011;62738;45.772;4.804;2022-11-20T16:13:41;3.08;;;1.52;;
74320;SDS011;62738;45.772;4.804;2022-11-20T16:16:30;5.00;;;1.70;;
74320;SDS011;62738;45.772;4.804;2022-11-20T16:18:59;3.83;;;1.55;;
74320;SDS011;62738;45.772;4.804;2022-11-20T16:21:26;5.50;;;2.05;;
74320;SDS011;62738;45.772;4.804;2022-11-20T16:24:07;4.97;;;1.58;;
74320;SDS011;62738;45.772;4.804;2022-11-20T16:26:36;5.07;;;1.88;;
74320;SDS011;62738;45.772;4.804;2022-11-20T16:29:03;3.40;;;1.60;;
74320;SDS011;62738;45.772;4.804;2022-11-20T16:31:31;4.70;;;1.70;;
74320;SDS011;62738;45.772;4.804;2022-11-20T16:33:59;3.95;;;1.67;;
74320;SDS011;62738;45.772;4.804;2022-11-20T16:36:35;4.57;;;1.80;;
74320;SDS011;62738;45.772;4.804;2022-11-20T16:39:02;6.10;;;1.73;;
74320;SDS011;62738;45.772;4.804;2022-11-20T16:41:31;4.13;;;1.80;;
74320;SDS011;62738;45.772;4.804;2022-11-20T16:43:59;6.50;;;2.20;;
74320;SDS011;62738;45.772;4.804;2022-11-20T16:46:29;6.10;;;1.83;;
74320;SDS011;62738;45.772;4.804;2022-11-20T16:48:58;5.47;;;2.30;;
74320;SDS011;62738;45.772;4.804;2022-11-20T16:51:26;3.58;;;1.77;;
74320;SDS011;62738;45.772;4.804;2022-11-20T16:53:54;4.68;;;1.75;;
74320;SDS011;62738;45.772;4.804;2022-11-20T16:56:23;5.70;;;2.40;;
74320;SDS011;62738;45.772;4.804;2022-11-20T16:58:52;4.70;;;2.33;;
74320;SDS011;62738;45.772;4.804;2022-11-20T17:01:21;3.35;;;1.77;;
74320;SDS011;62738;45.772;4.804;2022-11-20T17:03:53;3.88;;;2.35;;